Time;durP1;ratioP1;P1;durP2;ratioP2;P2;SDS_P1;SDS_P2;PMS_P1;PMS_P2;Temp;Humidity;BMP_temperature;BMP_pressure;BME280_temperature;BME280_humidity;BME280_pressure;Samples;Min_cycle;Max_cycle;Signal;HPM_P1;HPM_P2
2022/05/23 00:00:51;;;;;;;6.35;2.13;;;;;;;9.63;100.00;154945.38;4866000;29;20044;-78
2022/05/23 00:03:21;;;;;;;6.07;2.22;;;;;;;9.57;100.00;154931.25;4871648;29;20078;-77
2022/05/23 00:05:47;;;;;;;9.55;2.30;;;;;;;9.62;100.00;154944.03;4872077;29;20518;-75
2022/05/23 00:08:12;;;;;;;9.05;2.50;;;;;;;9.54;100.00;154924.81;4872058;29;20049;-75
2022/05/23 00:10:38;;;;;;;11.00;2.38;;;;;;;9.57;100.00;154929.94;4856786;29;20045;-78
2022/05/23 00:13:04;;;;;;;5.53;2.40;;;;;;;9.57;100.00;154931.25;4867481;29;20038;-75
2022/05/23 00:15:29;;;;;;;6.03;2.10;;;;;;;9.52;100.00;154919.69;4885076;29;20497;-77
2022/05/23 00:17:55;;;;;;;7.70;2.25;;;;;;;9.59;100.00;154935.06;4842296;29;20037;-76
2022/05/23 00:20:23;;;;;;;7.43;2.00;;;;;;;9.59;100.00;154936.38;4862952;29;20045;-77
2022/05/23 00:22:50;;;;;;;7.85;2.40;;;;;;;9.56;100.00;154928.66;4870000;29;20045;-77
2022/05/23 00:25:16;;;;;;;8.57;2.25;;;;;;;9.62;100.00;154942.78;4872885;29;20068;-76
2022/05/23 00:27:43;;;;;;;5.25;2.08;;;;;;;9.70;100.00;154963.28;4859396;29;20034;-75
2022/05/23 00:30:23;;;;;;;5.60;1.98;;;;;;;9.78;100.00;154982.56;4868432;29;20041;-76
2022/05/23 00:35:34;;;;;;;7.78;2.30;;;;;;;9.70;100.00;154964.59;4859225;29;20052;-77
2022/05/23 00:38:00;;;;;;;8.70;2.42;;;;;;;9.62;100.00;154942.78;4873440;29;20507;-78
2022/05/23 00:40:50;;;;;;;6.78;2.30;;;;;;;9.59;100.00;154936.38;4875684;29;20504;-77
2022/05/23 00:43:24;;;;;;;7.75;2.30;;;;;;;9.57;100.00;154929.94;4871281;29;20048;-77
2022/05/23 00:46:00;;;;;;;6.68;2.10;;;;;;;9.53;100.00;154922.28;4859788;29;20037;-76
2022/05/23 00:48:28;;;;;;;5.65;2.47;;;;;;;9.51;100.00;154917.16;4873587;29;20556;-78
2022/05/23 00:51:00;;;;;;;9.25;2.72;;;;;;;9.42;100.00;154892.75;4855380;29;20060;-78
2022/05/23 00:53:38;;;;;;;8.68;2.60;;;;;;;9.49;100.00;154912.03;4854709;29;20037;-77
2022/05/23 00:56:10;;;;;;;7.05;2.38;;;;;;;9.48;100.00;154908.19;4856612;29;20060;-76
2022/05/23 00:58:43;;;;;;;8.50;2.90;;;;;;;9.45;100.00;154901.72;4855709;29;20052;-76
2022/05/23 01:01:12;;;;;;;8.07;2.83;;;;;;;9.45;100.00;154901.72;4857751;29;20044;-77
2022/05/23 01:03:38;;;;;;;9.18;2.80;;;;;;;9.39;100.00;154885.09;4876423;29;20092;-76
2022/05/23 01:06:05;;;;;;;6.95;2.80;;;;;;;9.54;100.00;154923.56;4857265;29;20033;-77
2022/05/23 01:08:35;;;;;;;8.35;3.17;;;;;;;9.75;100.00;154976.09;4867109;29;20056;-76
2022/05/23 01:11:01;;;;;;;4.68;2.40;;;;;;;9.89;100.00;155012.03;4871895;29;20397;-76
2022/05/23 01:13:27;;;;;;;8.32;3.10;;;;;;;9.97;100.00;155031.25;4869967;29;20037;-75
2022/05/23 01:15:53;;;;;;;10.38;3.10;;;;;;;9.90;100.00;155013.31;4858852;29;20044;-76
2022/05/23 01:18:20;;;;;;;7.72;2.95;;;;;;;9.90;100.00;155014.56;4858499;29;20427;-76
2022/05/23 01:20:56;;;;;;;8.35;2.92;;;;;;;9.79;100.00;154985.09;4868444;29;20048;-75
2022/05/23 01:23:49;;;;;;;6.10;2.60;;;;;;;9.88;100.00;155008.19;4869065;29;20068;-78
2022/05/23 01:26:21;;;;;;;9.55;3.22;;;;;;;9.75;100.00;154976.09;4864180;29;20043;-76
2022/05/23 01:28:51;;;;;;;7.47;2.80;;;;;;;9.72;100.00;154969.72;4888538;29;20045;-77
2022/05/23 01:31:42;;;;;;;10.65;3.03;;;;;;;9.77;100.00;154979.97;4852522;29;20403;-77
2022/05/23 01:34:20;;;;;;;11.82;2.80;;;;;;;9.77;100.00;154979.97;4863901;29;20094;-78
2022/05/23 01:36:53;;;;;;;7.30;2.90;;;;;;;9.65;100.00;154951.75;4855915;29;20041;-80
2022/05/23 01:39:19;;;;;;;8.48;2.33;;;;;;;9.58;100.00;154933.78;4865841;29;20038;-76
2022/05/23 01:41:45;;;;;;;6.03;2.83;;;;;;;9.49;100.00;154910.72;4865915;29;20113;-78
2022/05/23 01:44:11;;;;;;;8.77;2.92;;;;;;;9.56;100.00;154928.66;4858921;29;20093;-79
2022/05/23 01:46:41;;;;;;;7.65;2.90;;;;;;;9.71;100.00;154965.84;4894361;29;20048;-77
2022/05/23 01:49:07;;;;;;;5.07;2.47;;;;;;;9.81;100.00;154990.22;4894384;29;20052;-79
2022/05/23 01:51:34;;;;;;;12.05;3.00;;;;;;;9.79;100.00;154985.09;4906184;29;20045;-79
2022/05/23 01:53:59;;;;;;;10.90;2.83;;;;;;;9.74;100.00;154974.84;4889465;29;20080;-77
2022/05/23 01:56:26;;;;;;;5.32;2.67;;;;;;;9.67;100.00;154956.88;4874085;29;20085;-78
2022/05/23 02:01:39;;;;;;;7.93;2.78;;;;;;;9.74;100.00;154974.84;4883064;29;20077;-76
2022/05/23 02:04:04;;;;;;;8.60;2.80;;;;;;;9.82;100.00;154992.81;4881180;29;20177;-77
2022/05/23 02:06:39;;;;;;;6.25;2.80;;;;;;;9.76;100.00;154978.69;4873109;29;20045;-76
2022/05/23 02:09:16;;;;;;;8.23;2.80;;;;;;;9.94;100.00;155024.88;4875815;29;20033;-79
2022/05/23 02:11:56;;;;;;;7.78;2.45;;;;;;;9.92;100.00;155019.69;4859834;29;20405;-79
2022/05/23 02:14:25;;;;;;;8.82;2.53;;;;;;;9.94;100.00;155024.88;4863375;29;20041;-78
2022/05/23 02:16:51;;;;;;;8.35;2.50;;;;;;;10.03;100.00;155046.63;4846159;29;20048;-78
2022/05/23 02:19:22;;;;;;;6.00;2.42;;;;;;;10.20;100.00;155087.69;4859216;29;20041;-78
2022/05/23 02:21:56;;;;;;;10.20;2.47;;;;;;;10.21;100.00;155091.56;4862647;29;20044;-78
2022/05/23 02:24:22;;;;;;;7.20;2.53;;;;;;;10.27;100.00;155105.66;4860243;29;20780;-78
2022/05/23 02:26:47;;;;;;;5.68;2.45;;;;;;;10.21;100.00;155090.22;4865777;29;20070;-78
2022/05/23 02:29:32;;;;;;;4.25;2.22;;;;;;;10.21;100.00;155090.22;4870347;29;20045;-78
2022/05/23 02:31:58;;;;;;;8.52;2.50;;;;;;;10.10;100.00;155064.59;4860526;29;20097;-77
2022/05/23 02:34:23;;;;;;;9.05;2.50;;;;;;;10.13;100.00;155072.31;4871560;29;20788;-78
2022/05/23 02:36:52;;;;;;;6.63;2.60;;;;;;;10.03;100.00;155046.63;4888374;29;20131;-79
2022/05/23 02:39:24;;;;;;;;;;;;;;;9.90;100.00;155013.31;4837975;29;20037;-77
2022/05/23 02:41:50;;;;;;;7.85;2.60;;;;;;;9.83;100.00;154995.34;4876083;29;20023;-78
2022/05/23 02:44:19;;;;;;;7.78;2.80;;;;;;;9.83;100.00;154995.34;4857862;29;20071;-78
2022/05/23 02:46:45;;;;;;;5.40;2.28;;;;;;;9.82;100.00;154992.81;4876152;29;20065;-78
2022/05/23 02:49:15;;;;;;;7.05;2.72;;;;;;;9.81;100.00;154991.47;4860776;29;20041;-77
2022/05/23 02:51:44;;;;;;;6.28;2.72;;;;;;;9.97;100.00;155030.00;4885897;29;20042;-77
2022/05/23 02:54:11;;;;;;;6.30;2.63;;;;;;;9.98;100.00;155033.81;4859190;29;20632;-79
2022/05/23 02:56:38;;;;;;;6.40;2.45;;;;;;;9.93;100.00;155021.00;4853988;29;20037;-79
2022/05/23 02:59:06;;;;;;;5.82;2.50;;;;;;;10.03;100.00;155046.63;4844889;29;20045;-77
2022/05/23 03:01:32;;;;;;;5.60;2.25;;;;;;;9.98;100.00;155033.81;4850714;29;20112;-78
2022/05/23 03:03:59;;;;;;;6.25;2.30;;;;;;;10.03;100.00;155045.38;4853467;29;20057;-77
2022/05/23 03:06:25;;;;;;;6.82;2.75;;;;;;;9.98;100.00;155032.53;4865850;29;20041;-78
2022/05/23 03:08:51;;;;;;;5.53;2.47;;;;;;;9.94;100.00;155023.56;4858653;29;20041;-78
2022/05/23 03:11:17;;;;;;;4.75;2.50;;;;;;;9.91;100.00;155015.88;4863506;29;20517;-79
2022/05/23 03:13:44;;;;;;;10.32;2.92;;;;;;;9.89;100.00;155012.03;4864330;29;20040;-78
2022/05/23 03:16:12;;;;;;;6.15;2.65;;;;;;;9.90;100.00;155013.31;4860424;29;20037;-79
2022/05/23 03:18:41;;;;;;;7.57;2.78;;;;;;;9.85;100.00;155001.78;4841037;29;20100;-79
2022/05/23 03:21:08;;;;;;;6.13;2.63;;;;;;;10.00;100.00;155037.66;4869127;29;20496;-78
2022/05/23 03:29:07;;;;;;;7.18;2.70;;;;;;;9.91;100.00;155015.88;4883607;29;20041;-79
2022/05/23 03:31:33;;;;;;;7.28;2.60;;;;;;;9.87;100.00;155005.59;4861295;29;20057;-79
2022/05/23 03:33:59;;;;;;;7.13;2.63;;;;;;;9.92;100.00;155019.69;4842014;29;20079;-77
2022/05/23 03:36:25;;;;;;;5.63;2.58;;;;;;;9.96;100.00;155028.69;4886436;29;20690;-78
2022/05/23 03:38:51;;;;;;;6.57;2.72;;;;;;;10.04;100.00;155049.22;4872590;29;20132;-77
2022/05/23 03:41:17;;;;;;;7.40;3.10;;;;;;;10.00;100.00;155037.66;4868378;29;20496;-78
2022/05/23 03:43:43;;;;;;;5.05;2.50;;;;;;;10.03;100.00;155046.63;4857500;29;20854;-78
2022/05/23 03:46:12;;;;;;;7.28;2.58;;;;;;;10.05;100.00;155050.50;4850048;29;20496;-77
2022/05/23 03:48:38;;;;;;;4.63;2.42;;;;;;;9.97;100.00;155031.25;4849710;29;20037;-78
2022/05/23 03:51:05;;;;;;;8.85;3.20;;;;;;;9.94;100.00;155023.56;4872077;29;20105;-78
2022/05/23 03:53:31;;;;;;;6.13;2.60;;;;;;;10.01;100.00;155041.50;4853495;29;20378;-78
2022/05/23 03:56:03;;;;;;;7.03;2.63;;;;;;;9.97;100.00;155030.00;4852815;29;20029;-79
2022/05/23 03:58:33;;;;;;;5.68;2.75;;;;;;;9.88;100.00;155008.19;4866781;29;20116;-78
2022/05/23 04:01:17;;;;;;;6.10;2.63;;;;;;;9.82;100.00;154992.81;4843439;29;20041;-78
2022/05/23 04:03:47;;;;;;;;;;;;;;;9.86;100.00;155004.31;4882741;29;20165;-77
2022/05/23 04:06:13;;;;;;;8.50;2.35;;;;;;;10.00;100.00;155037.66;4858461;29;20376;-77
2022/05/23 04:08:49;;;;;;;8.77;2.42;;;;;;;10.07;100.00;155055.63;4852016;29;20101;-77
2022/05/23 04:11:15;;;;;;;5.63;2.92;;;;;;;10.13;100.00;155071.00;4853107;29;20085;-77
2022/05/23 04:13:41;;;;;;;5.28;2.45;;;;;;;10.12;100.00;155069.72;4856214;29;20037;-78
2022/05/23 04:16:07;;;;;;;8.88;2.97;;;;;;;10.17;100.00;155081.31;4846416;29;20033;-77
2022/05/23 04:18:33;;;;;;;9.25;2.72;;;;;;;10.12;100.00;155068.47;4857067;29;20028;-77
2022/05/23 04:21:01;;;;;;;7.78;2.42;;;;;;;10.12;100.00;155069.72;4881293;29;20748;-76
2022/05/23 04:23:28;;;;;;;9.27;2.65;;;;;;;10.22;100.00;155092.81;4854636;29;20125;-77
2022/05/23 04:25:53;;;;;;;7.88;2.50;;;;;;;10.13;100.00;155072.31;4857836;29;20191;-77
2022/05/23 04:28:20;;;;;;;4.55;2.33;;;;;;;10.21;100.00;155090.22;4863077;29;20076;-76
2022/05/23 04:30:46;;;;;;;4.70;2.10;;;;;;;10.16;100.00;155077.44;4852983;29;20104;-77
2022/05/23 04:36:02;;;;;;;7.40;2.50;;;;;;;10.13;100.00;155072.31;4867878;29;20037;-80
2022/05/23 04:38:32;;;;;;;6.90;2.85;;;;;;;10.13;100.00;155071.00;4854281;29;20465;-77
2022/05/23 04:41:00;;;;;;;7.25;2.65;;;;;;;10.15;100.00;155076.13;4864758;29;20120;-77
2022/05/23 04:43:28;;;;;;;6.10;2.58;;;;;;;10.23;100.00;155095.41;4856291;29;20042;-79
2022/05/23 04:45:54;;;;;;;6.20;2.67;;;;;;;10.32;100.00;155119.81;4873272;29;20569;-79
2022/05/23 04:51:28;;;;;;;5.88;2.30;;;;;;;10.54;100.00;155172.41;4868714;29;20069;-77
2022/05/23 04:53:55;;;;;;;6.88;2.13;;;;;;;10.74;100.00;155223.72;4867794;29;20041;-77
2022/05/23 04:56:23;;;;;;;5.78;2.25;;;;;;;10.84;100.00;155249.38;4859606;29;20121;-76
2022/05/23 04:58:55;;;;;;;7.28;2.55;;;;;;;11.01;100.00;155291.72;4854406;29;20048;-75
2022/05/23 05:01:21;;;;;;;4.50;1.95;;;;;;;11.15;100.00;155326.41;4870708;29;20776;-77
2022/05/23 05:03:48;;;;;;;7.10;2.30;;;;;;;11.28;100.00;155358.44;4869331;29;20739;-76
2022/05/23 05:06:14;;;;;;;4.57;2.10;;;;;;;11.57;100.00;155431.63;4849119;29;20052;-77
2022/05/23 05:08:39;;;;;;;5.38;2.22;;;;;;;11.64;100.00;155449.63;4854368;29;20033;-77
2022/05/23 05:11:05;;;;;;;6.93;2.20;;;;;;;11.88;100.00;155509.97;4866060;29;20048;-77
2022/05/23 05:13:36;;;;;;;9.60;2.85;;;;;;;12.03;100.00;155547.22;4872017;29;20067;-76
2022/05/23 05:16:04;;;;;;;4.22;1.95;;;;;;;12.06;98.86;155554.94;4874689;29;20045;-76
2022/05/23 05:18:33;;;;;;;6.55;2.00;;;;;;;11.98;99.73;155533.09;4858051;29;20041;-77
2022/05/23 05:21:18;;;;;;;6.30;1.95;;;;;;;11.90;100.00;155513.84;4861632;29;20041;-78
2022/05/23 05:24:04;;;;;;;6.28;1.98;;;;;;;11.77;100.00;155480.41;4870617;29;20130;-76
2022/05/23 05:26:35;;;;;;;5.55;2.28;;;;;;;11.72;99.67;155468.88;4867760;29;20048;-76
2022/05/23 05:29:00;;;;;;;5.90;1.95;;;;;;;11.68;100.00;155459.88;4859361;29;20127;-76
2022/05/23 05:31:41;;;;;;;5.20;2.10;;;;;;;11.76;100.00;155477.88;4869533;29;20072;-76
2022/05/23 05:34:18;;;;;;;6.47;1.67;;;;;;;12.02;98.49;155543.41;4873162;29;20044;-77
2022/05/23 05:36:51;;;;;;;6.05;1.90;;;;;;;12.13;98.39;155570.34;4874887;29;20064;-76
2022/05/23 05:39:20;;;;;;;4.18;1.70;;;;;;;12.28;97.88;155608.84;4867898;29;20065;-78
2022/05/23 05:42:00;;;;;;;5.53;2.00;;;;;;;12.55;96.30;155676.97;4876659;29;20040;-76
2022/05/23 05:44:37;;;;;;;6.68;1.58;;;;;;;12.65;92.49;155701.34;4857750;29;20062;-76
2022/05/23 05:47:08;;;;;;;12.00;2.30;;;;;;;12.73;94.24;155721.91;4869027;29;20113;-78
2022/05/23 05:49:37;;;;;;;2.97;1.40;;;;;;;12.93;92.14;155772.00;4876562;29;20125;-76
2022/05/23 05:52:12;;;;;;;6.47;1.67;;;;;;;13.08;92.20;155808.00;4863821;29;20041;-76
2022/05/23 05:54:48;;;;;;;4.47;1.33;;;;;;;13.27;89.31;155855.56;4870486;29;20045;-76
2022/05/23 05:57:14;;;;;;;3.60;1.40;;;;;;;13.37;87.43;155881.28;4872878;29;20038;-76
2022/05/23 05:59:40;;;;;;;6.55;1.50;;;;;;;13.44;87.35;155900.56;4875096;29;20045;-76
2022/05/23 06:02:07;;;;;;;3.78;1.38;;;;;;;13.57;86.54;155931.44;4872534;29;20042;-76
2022/05/23 06:04:35;;;;;;;5.25;1.40;;;;;;;13.65;85.87;155950.69;4860257;29;20510;-76
2022/05/23 06:13:01;;;;;;;5.45;1.05;;;;;;;14.08;82.70;156058.69;4856137;29;20488;-77
2022/05/23 06:15:39;;;;;;;3.60;1.25;;;;;;;14.21;82.24;156093.41;4874539;29;20109;-77
2022/05/23 06:18:06;;;;;;;3.72;0.85;;;;;;;14.34;82.64;156124.28;4871391;29;20108;-77
2022/05/23 06:20:34;;;;;;;2.97;1.10;;;;;;;14.49;84.46;156161.56;4891214;29;20036;-78
2022/05/23 06:23:01;;;;;;;2.13;0.90;;;;;;;14.62;81.27;156193.75;4860391;29;20129;-77
2022/05/23 06:25:29;;;;;;;5.03;1.10;;;;;;;14.68;81.14;156209.22;4881801;29;20041;-79
2022/05/23 06:27:59;;;;;;;3.85;1.08;;;;;;;14.53;79.42;156171.84;4859766;29;20049;-76
2022/05/23 06:30:25;;;;;;;3.92;1.13;;;;;;;14.54;80.48;156174.41;4856463;29;20136;-77
2022/05/23 06:33:00;;;;;;;2.08;0.90;;;;;;;14.64;82.84;156198.94;4870924;29;20033;-78
2022/05/23 06:35:44;;;;;;;6.40;1.20;;;;;;;14.85;79.18;156251.66;4873226;29;20044;-77
2022/05/23 06:38:10;;;;;;;5.15;1.13;;;;;;;15.02;79.91;156294.09;4871044;29;20154;-77
2022/05/23 06:41:04;;;;;;;4.35;1.20;;;;;;;15.19;80.27;156337.84;4861777;29;20037;-76
2022/05/23 06:43:48;;;;;;;2.97;1.10;;;;;;;15.15;79.82;156327.56;4873845;29;20412;-75
2022/05/23 06:46:20;;;;;;;6.88;1.15;;;;;;;15.18;77.38;156335.25;4886342;29;20102;-76
2022/05/23 06:49:06;;;;;;;2.08;1.20;;;;;;;15.32;79.23;156370.00;4887797;29;20045;-77
2022/05/23 06:52:02;;;;;;;3.47;1.20;;;;;;;15.53;78.36;156424.03;4866073;29;20045;-76
2022/05/23 06:54:35;;;;;;;2.42;1.05;;;;;;;15.68;76.53;156460.09;4857713;29;20033;-76
2022/05/23 06:57:03;;;;;;;6.15;1.00;;;;;;;15.86;77.61;156506.47;4871499;29;20033;-77
2022/05/23 06:59:30;;;;;;;3.58;1.20;;;;;;;15.86;77.77;156505.16;4849310;29;20507;-76
2022/05/23 07:01:56;;;;;;;4.53;1.13;;;;;;;15.87;76.72;156509.03;4853391;29;20072;-77
2022/05/23 07:13:45;;;;;;;4.88;1.40;;;;;;;16.61;73.55;156693.13;4885856;29;20028;-76
2022/05/23 07:16:11;;;;;;;3.88;1.20;;;;;;;16.74;72.96;156727.91;4863523;29;20492;-76
2022/05/23 07:18:41;;;;;;;6.22;1.20;;;;;;;16.77;72.59;156734.34;4852899;29;20049;-77
2022/05/23 07:21:20;;;;;;;5.40;1.20;;;;;;;16.89;75.93;156765.28;4866168;29;20518;-76
2022/05/23 07:23:59;;;;;;;5.10;1.40;;;;;;;17.10;74.44;156818.13;4869750;29;20132;-77
2022/05/23 07:26:40;;;;;;;5.90;1.20;;;;;;;17.03;74.55;156798.81;4876771;29;20188;-77
2022/05/23 07:29:05;;;;;;;4.15;1.00;;;;;;;16.85;73.10;156754.97;4842344;29;20484;-78
2022/05/23 07:31:32;;;;;;;4.53;1.33;;;;;;;16.67;74.86;156708.56;4864657;29;20445;-77
2022/05/23 07:33:57;;;;;;;3.72;1.13;;;;;;;16.69;74.68;156713.75;4858087;29;20065;-77
2022/05/23 07:36:23;;;;;;;7.97;1.05;;;;;;;16.82;73.29;156745.91;4865640;29;20084;-77
2022/05/23 07:38:50;;;;;;;4.57;1.50;;;;;;;16.97;72.42;156783.31;4860335;29;20041;-76
2022/05/23 07:41:43;;;;;;;8.27;1.38;;;;;;;17.13;74.62;156825.81;4865694;29;20057;-77
2022/05/23 07:44:11;;;;;;;4.15;1.20;;;;;;;17.49;73.80;156915.97;4859405;29;20037;-77
2022/05/23 07:46:40;;;;;;;2.78;1.00;;;;;;;17.67;70.21;156961.09;4870171;29;20069;-77
2022/05/23 07:49:06;;;;;;;2.95;1.15;;;;;;;17.69;71.45;156966.25;4862294;29;20139;-80
2022/05/23 07:51:34;;;;;;;4.00;1.23;;;;;;;17.90;70.59;157019.13;4855574;29;20686;-77
2022/05/23 08:02:42;;;;;;;5.57;1.20;;;;;;;18.12;68.30;157071.94;4871760;29;20065;-77
2022/05/23 08:05:15;;;;;;;6.28;1.35;;;;;;;18.13;68.97;157075.81;4868411;29;20429;-77
2022/05/23 08:07:45;;;;;;;3.28;1.20;;;;;;;18.27;68.74;157110.59;4849510;29;20020;-77
2022/05/23 08:10:11;;;;;;;5.13;1.40;;;;;;;18.46;69.66;157159.59;4862169;29;20498;-77
2022/05/23 08:12:39;;;;;;;4.03;1.20;;;;;;;18.63;71.49;157200.88;4877698;29;20033;-76
2022/05/23 08:15:12;;;;;;;3.92;1.40;;;;;;;18.90;67.51;157267.94;4880681;29;20563;-76
2022/05/23 08:17:41;;;;;;;2.95;0.95;;;;;;;18.84;66.31;157255.03;4876830;29;20068;-77
2022/05/23 08:20:23;;;;;;;4.43;1.00;;;;;;;19.05;66.67;157306.63;4864258;29;20046;-77
2022/05/23 08:22:54;;;;;;;3.75;1.13;;;;;;;19.26;66.57;157360.75;4875856;29;20073;-77
2022/05/23 08:25:28;;;;;;;3.97;0.90;;;;;;;19.27;65.09;157362.09;4873004;29;20136;-77
2022/05/23 08:27:56;;;;;;;3.22;0.98;;;;;;;19.41;64.50;157398.16;4869815;29;20102;-78
2022/05/23 08:30:23;;;;;;;3.55;0.95;;;;;;;19.45;62.86;157408.47;4847730;29;20041;-78
2022/05/23 08:32:57;;;;;;;3.10;0.77;;;;;;;19.52;62.12;157425.25;4860218;29;20546;-77
2022/05/23 08:35:24;;;;;;;4.00;1.00;;;;;;;19.54;62.03;157430.41;4879308;29;20049;-77
2022/05/23 08:37:56;;;;;;;4.13;1.10;;;;;;;19.60;62.79;157445.88;4881980;29;20507;-77
2022/05/23 08:41:13;;;;;;;2.47;0.98;;;;;;;19.63;62.33;157453.63;4868213;29;20048;-79
2022/05/23 08:44:12;;;;;;;3.55;1.17;;;;;;;19.86;64.99;157510.44;4869117;29;20148;-76
2022/05/23 08:47:16;;;;;;;4.68;1.00;;;;;;;20.04;63.81;157555.56;4870180;29;20538;-76
2022/05/23 08:50:18;;;;;;;3.30;1.23;;;;;;;20.18;60.77;157590.44;4871879;29;20040;-77
2022/05/23 08:52:54;;;;;;;2.47;0.95;;;;;;;20.19;57.96;157594.31;4846075;29;20072;-76
2022/05/23 08:55:38;;;;;;;6.47;1.05;;;;;;;20.09;57.02;157568.47;4836417;29;20206;-77
2022/05/23 08:58:41;;;;;;;6.07;1.27;;;;;;;20.41;58.75;157648.47;4873951;29;20045;-78
2022/05/23 09:01:15;;;;;;;6.10;1.20;;;;;;;20.75;57.86;157733.69;4869959;29;20040;-78
2022/05/23 09:03:50;;;;;;;6.45;1.05;;;;;;;20.70;53.15;157720.78;4865898;29;20141;-76
2022/05/23 09:06:39;;;;;;;4.47;1.20;;;;;;;20.40;52.67;157645.94;4857990;29;20045;-78
2022/05/23 09:09:08;;;;;;;4.60;1.10;;;;;;;20.41;55.15;157648.47;4881467;29;20063;-78
2022/05/23 09:11:37;;;;;;;3.25;0.95;;;;;;;20.66;54.00;157710.47;4859509;29;20033;-77
2022/05/23 09:14:05;;;;;;;4.88;1.20;;;;;;;20.75;53.12;157733.69;4867494;29;20037;-77
2022/05/23 09:16:33;;;;;;;2.65;1.08;;;;;;;20.96;54.10;157786.59;4868294;29;20045;-77
2022/05/23 09:19:11;;;;;;;5.03;1.08;;;;;;;20.87;54.16;157764.69;4876663;29;20045;-77
2022/05/23 09:24:21;;;;;;;4.32;1.27;;;;;;;21.04;54.93;157807.28;4865122;29;20041;-79
2022/05/23 09:26:55;;;;;;;3.45;1.08;;;;;;;21.14;55.64;157831.81;4858241;29;20559;-78
2022/05/23 09:29:21;;;;;;;3.63;1.50;;;;;;;21.54;57.37;157932.53;4874996;29;20037;-79
2022/05/23 09:31:54;;;;;;;5.80;1.38;;;;;;;21.62;53.29;157951.91;4884994;29;20051;-77
2022/05/23 09:34:29;;;;;;;3.25;1.30;;;;;;;21.51;55.19;157926.09;4876961;29;20025;-78
2022/05/23 09:36:56;;;;;;;4.30;1.45;;;;;;;21.57;52.24;157941.59;4860329;29;20102;-80
2022/05/23 09:39:23;;;;;;;6.72;1.30;;;;;;;21.44;52.30;157906.69;4872725;29;20045;-79
2022/05/23 09:47:50;;;;;;;5.70;1.40;;;;;;;21.38;52.00;157893.78;4868330;29;20068;-77
2022/05/23 09:50:35;;;;;;;6.53;1.55;;;;;;;21.48;54.82;157917.06;4877274;29;20072;-80
2022/05/23 09:53:01;;;;;;;6.15;1.50;;;;;;;21.57;52.50;157941.59;4862415;29;20056;-77
2022/05/23 09:55:33;;;;;;;7.13;1.30;;;;;;;21.55;52.09;157935.16;4862358;29;20504;-77
2022/05/23 09:58:11;;;;;;;4.75;1.10;;;;;;;21.78;53.62;157994.53;4855900;29;20131;-79
2022/05/23 10:00:54;;;;;;;4.05;1.20;;;;;;;21.68;50.33;157968.72;4850564;29;20048;-77
2022/05/23 10:03:19;;;;;;;;;;;;;;;21.66;53.71;157963.56;4887188;29;20033;-77
2022/05/23 10:05:50;;;;;;;4.60;1.35;;;;;;;21.84;53.59;158007.44;4859587;29;19919;-78
2022/05/23 10:08:36;;;;;;;5.45;1.35;;;;;;;22.01;51.60;158050.06;4859871;29;20068;-78
2022/05/23 10:11:29;;;;;;;6.18;1.63;;;;;;;22.04;50.93;158057.78;4873731;29;20056;-78
2022/05/23 10:14:05;;;;;;;6.30;1.50;;;;;;;22.22;53.54;158103.00;4859409;29;20037;-81
2022/05/23 10:16:54;;;;;;;4.93;1.58;;;;;;;22.49;52.23;158172.81;4857598;29;20045;-78
2022/05/23 10:19:38;;;;;;;3.45;1.30;;;;;;;22.33;52.07;158132.75;4870970;29;20039;-78
2022/05/23 10:22:16;;;;;;;6.10;1.48;;;;;;;22.31;52.58;158127.59;4871324;29;20872;-77
2022/05/23 10:25:05;;;;;;;4.53;1.50;;;;;;;22.14;50.11;158083.63;4862701;29;20557;-76
2022/05/23 10:27:52;;;;;;;5.80;1.73;;;;;;;22.08;51.22;158068.16;4887961;29;20038;-78
2022/05/23 10:30:21;;;;;;;5.65;1.45;;;;;;;21.93;48.98;158031.97;4870356;29;20050;-79
2022/05/23 10:32:50;;;;;;;8.13;1.70;;;;;;;21.79;50.11;157995.78;4858617;29;20064;-78
2022/05/23 10:35:26;;;;;;;5.40;1.63;;;;;;;22.00;51.61;158047.44;4883245;29;20041;-78
2022/05/23 10:37:52;;;;;;;6.68;1.65;;;;;;;21.85;50.05;158010.00;4875223;29;20045;-79
2022/05/23 10:43:16;;;;;;;4.80;1.60;;;;;;;22.30;50.12;158125.03;4871305;29;20085;-78
2022/05/23 10:45:54;;;;;;;4.50;1.30;;;;;;;22.38;49.85;158144.41;4864912;29;20045;-77
2022/05/23 10:48:44;;;;;;;4.75;1.25;;;;;;;22.46;53.67;158163.78;4862460;29;20037;-79
2022/05/23 10:51:09;;;;;;;3.72;1.52;;;;;;;22.58;48.70;158194.75;4871926;29;20135;-78
2022/05/23 10:54:00;;;;;;;6.60;1.70;;;;;;;22.52;49.71;158179.25;4881895;29;20124;-78
2022/05/23 10:56:37;;;;;;;9.90;1.52;;;;;;;22.37;50.09;158141.78;4872347;29;20049;-77
2022/05/23 10:59:28;;;;;;;3.92;1.40;;;;;;;22.62;51.09;158203.78;4877769;29;20454;-78
2022/05/23 11:02:09;;;;;;;4.97;1.20;;;;;;;22.59;47.53;158196.06;4858961;29;20132;-78
2022/05/23 11:05:13;;;;;;;8.20;1.77;;;;;;;22.62;51.93;158203.78;4862626;29;20040;-78
2022/05/23 11:08:01;;;;;;;5.82;1.48;;;;;;;22.98;48.56;158295.56;4821502;29;20750;-79
2022/05/23 11:10:34;;;;;;;5.78;1.30;;;;;;;23.06;49.50;158314.97;4872698;29;20060;-79
2022/05/23 11:13:25;;;;;;;3.17;1.27;;;;;;;22.90;48.41;158276.13;4859911;29;20078;-78
2022/05/23 11:16:17;;;;;;;5.40;1.55;;;;;;;22.69;47.79;158223.16;4865690;29;20069;-78
2022/05/23 11:19:07;;;;;;;6.00;1.70;;;;;;;22.77;50.99;158242.53;4865440;29;20128;-78
2022/05/23 11:21:42;;;;;;;7.60;1.40;;;;;;;22.88;48.91;158269.69;4871340;29;20052;-78
2022/05/23 11:24:22;;;;;;;4.82;1.40;;;;;;;22.99;47.91;158296.81;4868838;29;20132;-78
2022/05/23 11:26:54;;;;;;;6.90;1.67;;;;;;;23.10;47.66;158326.59;4864141;29;20042;-77
2022/05/23 11:34:58;;;;;;;4.50;1.50;;;;;;;22.96;45.98;158290.34;4866724;29;20052;-79
2022/05/23 11:39:57;;;;;;;4.95;1.10;;;;;;;23.40;47.81;158401.53;4859807;29;20050;-79
2022/05/23 11:42:50;;;;;;;3.72;1.30;;;;;;;23.61;46.49;158454.53;4867245;29;20040;-81
2022/05/23 11:48:40;;;;;;;4.00;1.30;;;;;;;23.32;48.38;158382.16;4872588;29;20033;-78
2022/05/23 11:51:30;;;;;;;4.85;1.42;;;;;;;23.05;46.34;158313.66;4846597;29;20040;-80
2022/05/23 11:54:04;;;;;;;4.53;1.40;;;;;;;22.91;49.40;158278.72;4868931;29;20037;-78
2022/05/23 11:56:35;;;;;;;2.97;1.25;;;;;;;23.15;49.77;158336.91;4870033;29;20044;-77
2022/05/23 11:59:02;;;;;;;4.15;1.75;;;;;;;23.37;45.92;158392.50;4865582;29;20065;-77
2022/05/23 12:01:30;;;;;;;6.20;1.15;;;;;;;23.11;45.13;158327.88;4886754;29;20102;-77
2022/05/23 12:03:56;;;;;;;6.18;1.50;;;;;;;22.88;46.65;158270.97;4870748;29;20038;-77
2022/05/23 12:06:24;;;;;;;3.58;1.20;;;;;;;22.97;46.54;158291.66;4868288;29;20053;-77
2022/05/23 12:09:02;;;;;;;3.22;1.20;;;;;;;23.29;48.16;158373.13;4869544;29;20055;-79
2022/05/23 12:11:29;;;;;;;7.22;1.60;;;;;;;23.50;46.27;158426.09;4877710;29;20041;-79
2022/05/23 12:13:59;;;;;;;5.88;1.50;;;;;;;23.43;48.21;158408.00;4890088;29;20043;-79
2022/05/23 12:16:31;;;;;;;6.68;1.73;;;;;;;23.21;46.31;158353.75;4872202;29;20385;-77
2022/05/23 12:19:27;;;;;;;6.00;1.33;;;;;;;23.71;46.99;158480.41;4862014;29;20713;-79
2022/05/23 12:22:12;;;;;;;3.13;1.27;;;;;;;23.69;47.90;158473.91;4871078;29;20101;-77
2022/05/23 12:25:16;;;;;;;4.45;1.52;;;;;;;23.62;46.50;158457.13;4876775;29;20025;-78
2022/05/23 12:27:42;;;;;;;2.83;1.20;;;;;;;23.71;45.38;158480.41;4885224;29;20044;-78
2022/05/23 12:30:17;;;;;;;4.97;1.20;;;;;;;23.74;46.58;158485.56;4864678;29;20055;-78
2022/05/23 12:32:56;;;;;;;6.10;1.52;;;;;;;23.93;46.04;158534.72;4873708;29;20034;-79
2022/05/23 12:35:32;;;;;;;4.18;1.20;;;;;;;23.97;45.34;158543.78;4875761;29;20047;-78
2022/05/23 12:38:20;;;;;;;6.82;1.30;;;;;;;23.79;46.20;158499.84;4895392;29;20112;-78
2022/05/23 12:40:51;;;;;;;7.95;1.40;;;;;;;23.76;47.56;158492.03;4873308;29;20516;-78
2022/05/23 12:43:49;;;;;;;4.53;1.30;;;;;;;23.07;46.12;158317.53;4873592;29;20029;-77
2022/05/23 12:46:39;;;;;;;6.80;1.92;;;;;;;23.42;49.85;158406.72;4852321;29;20868;-78
2022/05/23 12:49:42;;;;;;;4.70;1.63;;;;;;;23.98;46.43;158546.34;4860418;29;20186;-80
2022/05/23 12:52:41;;;;;;;7.63;1.38;;;;;;;24.00;46.06;158551.56;4855657;29;20098;-78
2022/05/23 12:55:33;;;;;;;4.25;1.33;;;;;;;23.97;45.65;158545.06;4876436;29;20049;-77